AirNav   Air Wisconsin Airman Trainee
 
 339 users online  

CA67 Valley Crop Dusters, Inc Airport
Westley, California, USA

GOING TO WESTLEY?


FAA INFORMATION EFFECTIVE 28 MARCH 2019

Location

FAA Identifier: CA67
Lat/Long: 37-32-52.7540N / 121-12-17.7730W
37-32.879233N / 121-12.296217W
37.5479872 / -121.2049369
(estimated)
Elevation: 96 ft. / 29.3 m (surveyed)
Variation: 16E (1985)
Time zone: UTC -7 (UTC -8 during Standard Time)
Zip code: 95387

Airport Operations

Airport use: Private use. Permission required prior to landing
Activation date: 01/1959
Control tower: no
ARTCC: OAKLAND CENTER
FSS: RANCHO MURIETA FLIGHT SERVICE STATION
Attendance: UNATNDD
Wind indicator: yes
Segmented circle: no

Airport Communications

WX ASOS at MOD (13 nm E): 127.7 (209-572-0914)
WX AWOS-3 at TCY (14 nm NW): 118.375 (209-831-4335)

Nearby radio navigation aids

VOR radial/distance  VOR name  Freq  Var
MODr231/12.7MODESTO VOR/DME114.6017E
LINr180/33.0LINDEN VOR/DME114.8017E
SJCr058/36.7SAN JOSE VOR/DME114.1016E

 
NDB name  Hdg/Dist  Freq  Var  ID
TRACY112/14.320315ETCY - -.-. -.--

Airport Services

Airframe service: MAJOR
Powerplant service: MAJOR

Runway Information

Runway 3/21

Dimensions: 1562 x 30 ft. / 476 x 9 m
Surface: asphalt
RUNWAY 3  RUNWAY 21
Elevation: 96.0 ft.
Traffic pattern: leftleft
Obstructions: nonebldgs tanks

Airport Ownership and Management from official FAA records

Ownership: Privately-owned
Owner: VALLEY CROP DUSTERS, INC.
PO BOX 208
WESTLEY, CA 95387
Phone 209-894-3611
Manager: VALLEY CROP DUSTERS, INC.
PO BOX 208
WESTLEY, CA 95387
Phone 209-894-3611

Airport Operational Statistics

Aircraft based on the field: 3
Single engine airplanes: 3
    

Additional Remarks

2 DUSTER ACFT IN OPERN.
FOR CD CTC NORCAL APCH AT 916-361-0516.

Instrument Procedures

There are no published instrument procedures at CA67.

Some nearby airports with instrument procedures:

KMOD - Modesto City-County Airport-Harry Sham Field (13 nm E)
KTCY - Tracy Municipal Airport (14 nm NW)
KSCK - Stockton Metropolitan Airport (21 nm N)
O27 - Oakdale Airport (23 nm NE)
C83 - Byron Airport (26 nm NW)
 
Loc | Ops | Rwys | IFR | FBO | Links
Com | Nav | Svcs | Stats | Notes
Area around CA67 (Valley Crop Dusters, Inc Airport)
 
Road maps at: MapQuest Bing Google
 
Aerial photo
No photo
 
Sectional chart

 
Airport distance calculator
Flying to Valley Crop Dusters, Inc Airport? Find the distance to fly.

From to CA67

Sunrise and sunset
Times for 23-Apr-2019
 Local
(UTC-7)
 Zulu
(UTC)
Morning civil twilight05:5312:53
Sunrise06:2013:20
Sunset19:4602:46
Evening civil twilight20:1403:14

Current date and time
Zulu (UTC)  23-Apr-2019 09:04:15
Local (UTC-7)  23-Apr-2019 02:04:15
 
METAR
KMOD 
13nm E 
230853Z AUTO 02003KT 10SM CLR 16/07 A2996 RMK AO2 SLP146 T01610072 52006
KTCY 
14nm NW 
230855Z AUTO 31009KT 10SM CLR 23/05 A2998 RMK A01
KSCK 
20nm N 
230855Z AUTO 33003KT 10SM CLR 13/09 A2997 RMK AO2 SLP148 T01330089 53003
TAF
KMOD 
13nm E 
230520Z 2306/2406 32008KT P6SM SKC
NOTAMs
Click for the latest NOTAMs
NOTAMs are issued by the DoD/FAA and will open in a separate window not controlled by AirNav.

 

 
 

Would you like to see your business listed on this page?

 If your business provides an interesting product or service to pilots, flight crews, aircraft, or users of the Valley Crop Dusters, Inc Airport, you should consider listing it here.  To start the listing process, click on the button below
 
Add a business
 

Other Pages about Valley Crop Dusters, Inc Airport

Update a link
 
Copyright © AirNav, LLC. All rights reserved. Privacy Policy  Contact